createdAt,value
2023-01-06T00:01:13.887Z,10.00
2023-01-06T00:03:41.467Z,9.91
2023-01-06T00:06:12.543Z,9.82
2023-01-06T00:08:41.432Z,9.88
2023-01-06T00:11:09.779Z,10.07
2023-01-06T00:13:37.356Z,10.07
2023-01-06T00:16:08.498Z,9.86
2023-01-06T00:18:36.123Z,10.01
2023-01-06T00:21:04.475Z,10.02
2023-01-06T00:23:32.440Z,10.25
2023-01-06T00:26:01.431Z,9.99
2023-01-06T00:28:29.437Z,9.91
2023-01-06T00:30:57.465Z,9.93
2023-01-06T00:33:25.427Z,9.92
2023-01-06T00:35:53.060Z,9.91
2023-01-06T00:38:20.944Z,9.96
2023-01-06T00:40:48.504Z,9.69
2023-01-06T00:43:17.440Z,9.72
2023-01-06T00:45:44.958Z,9.82
2023-01-06T00:48:12.485Z,9.87
2023-01-06T00:50:39.990Z,9.98
2023-01-06T00:53:08.221Z,9.91
2023-01-06T00:55:36.357Z,9.65
2023-01-06T00:58:03.878Z,9.85
2023-01-06T01:00:33.030Z,9.71
2023-01-06T01:03:00.578Z,9.77
2023-01-06T01:05:28.080Z,9.85
2023-01-06T01:07:55.586Z,9.81
2023-01-06T01:10:23.060Z,9.94
2023-01-06T01:12:50.561Z,9.81
2023-01-06T01:15:18.220Z,9.68
2023-01-06T01:17:47.282Z,9.43
2023-01-06T01:20:14.775Z,9.63
2023-01-06T01:22:42.331Z,9.80
2023-01-06T01:25:10.593Z,9.55
2023-01-06T01:27:38.460Z,9.86
2023-01-06T01:30:07.147Z,9.67
2023-01-06T01:32:34.646Z,9.67
2023-01-06T01:35:03.519Z,9.71
2023-01-06T01:37:31.556Z,9.95
2023-01-06T01:39:59.878Z,9.92
2023-01-06T01:42:27.378Z,10.07
2023-01-06T01:45:01.214Z,9.96
2023-01-06T01:47:35.571Z,9.90
2023-01-06T01:50:09.170Z,10.02
2023-01-06T01:52:36.872Z,9.94
2023-01-06T01:55:05.963Z,10.01
2023-01-06T01:57:35.601Z,9.95
2023-01-06T02:00:06.034Z,10.01
2023-01-06T02:02:40.963Z,9.90
2023-01-06T02:05:12.150Z,9.66
2023-01-06T02:07:39.933Z,9.64
2023-01-06T02:10:12.299Z,9.55
2023-01-06T02:12:40.292Z,9.57
2023-01-06T02:15:16.543Z,9.77
2023-01-06T02:18:14.135Z,9.68
2023-01-06T02:20:55.691Z,9.77
2023-01-06T02:23:36.549Z,9.70
2023-01-06T02:26:34.715Z,9.88
2023-01-06T02:29:49.596Z,9.72
2023-01-06T02:32:27.148Z,9.97
2023-01-06T02:35:05.839Z,9.85
2023-01-06T02:37:45.073Z,9.84
2023-01-06T02:40:23.239Z,9.82
2023-01-06T02:43:01.433Z,9.81
2023-01-06T02:45:38.067Z,9.93
2023-01-06T02:48:11.871Z,9.79
2023-01-06T02:50:41.424Z,9.83
2023-01-06T02:53:12.920Z,9.96
2023-01-06T02:55:44.545Z,9.81
2023-01-06T02:58:15.143Z,9.76
2023-01-06T03:00:44.903Z,9.97
2023-01-06T03:03:19.741Z,9.83
2023-01-06T03:05:50.188Z,9.91
2023-01-06T03:08:19.857Z,9.76
2023-01-06T03:10:48.289Z,10.03
2023-01-06T03:13:20.182Z,9.74
2023-01-06T03:15:47.988Z,9.89
2023-01-06T03:18:17.017Z,9.79
2023-01-06T03:20:44.810Z,9.96
2023-01-06T03:23:14.169Z,9.75
2023-01-06T03:25:41.706Z,9.94
2023-01-06T03:28:09.963Z,9.83
2023-01-06T03:30:44.417Z,9.97
2023-01-06T03:33:21.168Z,10.03
2023-01-06T03:36:01.609Z,9.79
2023-01-06T03:38:40.582Z,9.80
2023-01-06T03:41:14.966Z,9.76
2023-01-06T03:43:49.311Z,9.99
2023-01-06T03:46:24.142Z,9.71
2023-01-06T03:49:06.113Z,9.89
2023-01-06T03:51:45.757Z,9.80
2023-01-06T03:54:24.070Z,9.75
2023-01-06T03:56:58.622Z,9.58
2023-01-06T03:59:28.278Z,9.51
2023-01-06T04:02:01.557Z,9.67
2023-01-06T04:04:30.455Z,9.83
2023-01-06T04:06:58.511Z,9.92
2023-01-06T04:09:26.130Z,9.63
2023-01-06T04:12:11.731Z,9.55
2023-01-06T04:14:40.590Z,9.61
2023-01-06T04:17:08.123Z,9.89
2023-01-06T04:19:37.465Z,9.88
2023-01-06T04:22:05.054Z,9.91
2023-01-06T04:24:33.977Z,9.74
2023-01-06T04:27:01.628Z,9.65
2023-01-06T04:29:29.254Z,9.77
2023-01-06T04:31:57.888Z,9.86
2023-01-06T04:34:25.498Z,9.92
2023-01-06T04:36:55.712Z,9.96
2023-01-06T04:39:23.357Z,9.89
2023-01-06T04:41:50.840Z,9.86
2023-01-06T04:44:18.336Z,9.67
2023-01-06T04:46:45.839Z,9.74
2023-01-06T04:49:13.560Z,9.80
2023-01-06T04:51:41.012Z,9.81
2023-01-06T04:54:09.831Z,9.99
2023-01-06T04:56:37.595Z,10.13
2023-01-06T04:59:05.247Z,10.02
2023-01-06T05:01:32.730Z,10.04
2023-01-06T05:04:00.350Z,9.69
2023-01-06T05:06:27.840Z,9.99
2023-01-06T05:08:55.367Z,10.01
2023-01-06T05:11:26.100Z,9.83
2023-01-06T05:13:54.384Z,9.49
2023-01-06T05:16:25.051Z,9.87
2023-01-06T05:18:52.731Z,9.79
2023-01-06T05:21:20.223Z,9.75
2023-01-06T05:23:47.754Z,9.76
2023-01-06T05:26:18.380Z,9.99
2023-01-06T05:28:47.581Z,10.09
2023-01-06T05:31:15.459Z,9.93
2023-01-06T05:33:43.284Z,9.84
2023-01-06T05:36:12.635Z,9.67
2023-01-06T05:38:40.376Z,9.71
2023-01-06T05:41:08.357Z,9.74
2023-01-06T05:43:37.011Z,9.76
2023-01-06T05:46:11.091Z,9.80
2023-01-06T05:48:39.331Z,10.02
2023-01-06T05:51:08.684Z,10.06
2023-01-06T05:53:37.583Z,9.98
2023-01-06T05:56:06.366Z,9.78
2023-01-06T05:58:34.055Z,9.85
2023-01-06T06:01:01.796Z,9.83
2023-01-06T06:03:30.845Z,9.95
2023-01-06T06:06:03.156Z,10.03
2023-01-06T06:08:30.633Z,10.00
2023-01-06T06:10:58.338Z,9.91
2023-01-06T06:13:25.841Z,10.12
2023-01-06T06:15:53.280Z,10.13
2023-01-06T06:18:20.960Z,9.96
2023-01-06T06:20:49.792Z,9.81
2023-01-06T06:23:19.202Z,9.95
2023-01-06T06:25:46.723Z,10.26
2023-01-06T06:28:14.200Z,9.95
2023-01-06T06:30:41.690Z,9.96
2023-01-06T06:33:09.139Z,9.92
2023-01-06T06:35:36.650Z,9.78
2023-01-06T06:38:05.460Z,9.84
2023-01-06T06:40:32.972Z,9.74
2023-01-06T06:43:00.421Z,10.01
2023-01-06T06:45:27.951Z,9.85
2023-01-06T06:47:55.794Z,10.02
2023-01-06T06:50:23.262Z,10.00
2023-01-06T06:52:50.808Z,9.79
2023-01-06T06:55:19.660Z,10.00
2023-01-06T06:57:47.143Z,10.06
2023-01-06T07:00:15.634Z,9.86
2023-01-06T07:02:43.075Z,10.00
2023-01-06T07:05:10.551Z,10.13
2023-01-06T07:07:38.069Z,10.15
2023-01-06T07:10:06.591Z,9.86
2023-01-06T07:12:35.681Z,10.09
2023-01-06T07:15:03.133Z,9.84
2023-01-06T07:17:30.670Z,9.95
2023-01-06T07:19:58.145Z,9.96
2023-01-06T07:22:25.639Z,9.86
2023-01-06T07:24:53.149Z,9.78
2023-01-06T07:27:20.641Z,9.82
2023-01-06T07:29:49.509Z,9.84
2023-01-06T07:32:16.960Z,9.94
2023-01-06T07:34:44.422Z,9.98
2023-01-06T07:37:11.894Z,10.19
2023-01-06T07:39:39.515Z,10.12
2023-01-06T07:42:09.600Z,10.12
2023-01-06T07:44:37.079Z,10.17
2023-01-06T07:47:06.504Z,10.51
2023-01-06T07:49:34.315Z,9.97
2023-01-06T07:52:01.875Z,9.98
2023-01-06T07:54:29.423Z,9.95
2023-01-06T07:56:56.954Z,9.91
2023-01-06T07:59:24.423Z,9.86
2023-01-06T08:01:51.993Z,9.83
2023-01-06T08:04:20.852Z,9.89
2023-01-06T08:06:48.378Z,9.84
2023-01-06T08:09:15.832Z,10.00
2023-01-06T08:11:45.245Z,10.01
2023-01-06T08:14:13.141Z,10.18
2023-01-06T08:16:41.413Z,10.05
2023-01-06T08:19:08.931Z,10.07
2023-01-06T08:21:37.795Z,10.29
2023-01-06T08:24:06.426Z,10.35
2023-01-06T08:26:33.979Z,10.38
2023-01-06T08:29:01.418Z,10.38
2023-01-06T08:31:29.617Z,10.28
2023-01-06T08:33:57.103Z,10.36
2023-01-06T08:36:25.638Z,10.50
2023-01-06T08:38:54.575Z,10.52
2023-01-06T08:41:22.308Z,10.51
2023-01-06T08:43:50.068Z,10.40
2023-01-06T08:46:19.929Z,10.41
2023-01-06T08:48:48.254Z,10.38
2023-01-06T08:51:18.338Z,10.49
2023-01-06T08:53:46.788Z,10.65
2023-01-06T08:56:16.196Z,10.44
2023-01-06T08:58:43.734Z,10.49
2023-01-06T09:01:17.469Z,10.56
2023-01-06T09:03:45.160Z,10.60
2023-01-06T09:06:13.032Z,10.52
2023-01-06T09:08:40.861Z,10.39
2023-01-06T09:11:09.427Z,10.50
2023-01-06T09:13:38.543Z,10.65
2023-01-06T09:16:06.668Z,10.66
2023-01-06T09:18:34.210Z,10.76
2023-01-06T09:21:01.914Z,10.26
2023-01-06T09:23:29.895Z,10.24
2023-01-06T09:25:58.090Z,10.34
2023-01-06T09:28:25.826Z,10.26
2023-01-06T09:30:54.786Z,10.18
2023-01-06T09:33:22.355Z,10.16
2023-01-06T09:35:49.950Z,9.96
2023-01-06T09:38:17.872Z,9.77
2023-01-06T09:40:55.059Z,9.76
2023-01-06T09:43:31.021Z,9.93
2023-01-06T09:46:01.990Z,10.12
2023-01-06T09:48:34.415Z,9.99
2023-01-06T09:51:04.916Z,10.16
2023-01-06T09:53:34.941Z,10.05
2023-01-06T09:56:04.767Z,9.99
2023-01-06T09:58:35.461Z,9.91
2023-01-06T10:01:08.220Z,10.17
2023-01-06T10:03:36.850Z,10.33
2023-01-06T10:06:18.039Z,10.09
2023-01-06T10:08:51.236Z,10.01
2023-01-06T10:11:23.848Z,10.13
2023-01-06T10:14:00.124Z,10.08
2023-01-06T10:16:40.723Z,10.10
2023-01-06T10:19:17.121Z,9.98
2023-01-06T10:21:49.827Z,9.83
2023-01-06T10:24:30.236Z,9.81
2023-01-06T10:26:59.635Z,9.88
2023-01-06T10:29:31.489Z,9.95
2023-01-06T10:32:00.918Z,10.05
2023-01-06T10:34:29.630Z,9.90
2023-01-06T10:37:03.577Z,9.86
2023-01-06T10:39:32.898Z,9.91
2023-01-06T10:42:25.004Z,9.92
2023-01-06T10:44:52.651Z,9.99
2023-01-06T10:47:25.692Z,9.94
2023-01-06T10:49:53.415Z,9.98
2023-01-06T10:52:22.001Z,9.90
2023-01-06T10:54:52.117Z,9.69
2023-01-06T10:57:23.362Z,9.95
2023-01-06T11:00:12.175Z,9.95
2023-01-06T11:02:44.933Z,9.91
2023-01-06T11:05:20.904Z,9.87
2023-01-06T11:07:52.871Z,10.06
2023-01-06T11:10:30.404Z,10.07
2023-01-06T11:13:00.040Z,10.15
2023-01-06T11:15:36.517Z,10.16
2023-01-06T11:18:06.132Z,10.25
2023-01-06T11:20:35.293Z,10.59
2023-01-06T11:23:21.809Z,10.61
2023-01-06T11:26:03.891Z,10.78
2023-01-06T11:28:31.605Z,10.65
2023-01-06T11:31:02.692Z,10.71
2023-01-06T11:33:32.674Z,10.68
2023-01-06T11:36:10.027Z,10.72
2023-01-06T11:38:45.814Z,10.57
2023-01-06T11:41:14.381Z,10.70
2023-01-06T11:43:45.036Z,11.00
2023-01-06T11:46:14.447Z,11.39
2023-01-06T11:48:47.809Z,11.71
2023-01-06T11:51:15.733Z,11.81
2023-01-06T11:53:57.236Z,11.97
2023-01-06T11:56:25.432Z,12.16
2023-01-06T11:58:59.598Z,12.10
2023-01-06T12:01:33.162Z,12.01
2023-01-06T12:04:08.683Z,11.70
2023-01-06T12:06:39.295Z,11.66
2023-01-06T12:09:13.128Z,11.80
2023-01-06T12:11:45.246Z,11.86
2023-01-06T12:14:27.355Z,11.92
2023-01-06T12:17:04.552Z,11.78
2023-01-06T12:19:36.885Z,11.54
2023-01-06T12:22:04.791Z,11.38
2023-01-06T12:24:33.550Z,11.45
2023-01-06T12:27:02.623Z,11.22
2023-01-06T12:29:31.766Z,11.08
2023-01-06T12:32:08.289Z,11.23
2023-01-06T12:34:38.822Z,11.28
2023-01-06T12:37:17.344Z,11.27
2023-01-06T12:39:48.498Z,11.14
2023-01-06T12:42:22.110Z,11.41
2023-01-06T12:44:53.307Z,11.41
2023-01-06T12:47:26.220Z,11.40
2023-01-06T12:49:58.516Z,11.35
2023-01-06T12:52:32.016Z,11.24
2023-01-06T12:55:00.108Z,11.20
2023-01-06T12:57:38.603Z,11.25
2023-01-06T13:00:25.118Z,11.35
2023-01-06T13:03:02.340Z,11.65
2023-01-06T13:05:41.342Z,11.57
2023-01-06T13:08:21.784Z,11.64
2023-01-06T13:10:55.211Z,11.40
2023-01-06T13:13:32.892Z,11.57
2023-01-06T13:16:05.148Z,11.34
2023-01-06T13:18:35.243Z,11.30
2023-01-06T13:21:06.699Z,11.37
2023-01-06T13:23:53.542Z,11.55
2023-01-06T13:26:35.210Z,11.75
2023-01-06T13:29:09.757Z,11.80
2023-01-06T13:31:57.806Z,12.04
2023-01-06T13:34:42.197Z,12.18
2023-01-06T13:37:28.926Z,11.86
2023-01-06T13:39:58.407Z,11.55
2023-01-06T13:42:34.109Z,11.40
2023-01-06T13:45:02.379Z,11.36
2023-01-06T13:47:31.079Z,11.12
2023-01-06T13:49:59.297Z,11.19
2023-01-06T13:52:30.559Z,11.05
2023-01-06T13:55:01.528Z,11.03
2023-01-06T13:57:32.326Z,10.88
2023-01-06T14:00:17.262Z,10.90
2023-01-06T14:03:15.428Z,10.76
2023-01-06T14:05:54.215Z,10.63
2023-01-06T14:08:24.801Z,10.66
2023-01-06T14:11:02.086Z,10.63
2023-01-06T14:13:33.343Z,10.57
2023-01-06T14:16:07.416Z,10.54
2023-01-06T14:18:41.080Z,10.57
2023-01-06T14:21:19.197Z,10.53
2023-01-06T14:24:03.183Z,10.29
2023-01-06T14:26:47.413Z,10.40
2023-01-06T14:29:45.299Z,10.43
2023-01-06T14:32:51.474Z,10.41
2023-01-06T14:35:21.367Z,10.33
2023-01-06T14:37:54.288Z,10.21
2023-01-06T14:40:25.704Z,10.18
2023-01-06T14:42:53.641Z,10.15
2023-01-06T14:45:24.707Z,10.21
2023-01-06T14:47:53.787Z,10.19
2023-01-06T14:50:26.333Z,10.08
2023-01-06T14:53:00.983Z,10.18
2023-01-06T14:55:32.916Z,10.24
2023-01-06T14:58:00.416Z,10.31
2023-01-06T15:00:29.849Z,10.26
2023-01-06T15:02:58.942Z,10.26
2023-01-06T15:05:30.247Z,10.28
2023-01-06T15:07:59.876Z,10.29
2023-01-06T15:10:28.607Z,10.17
2023-01-06T15:12:57.834Z,10.09
2023-01-06T15:15:27.356Z,10.05
2023-01-06T15:17:55.707Z,10.02
2023-01-06T15:20:27.882Z,9.90
2023-01-06T15:22:55.394Z,9.90
2023-01-06T15:25:24.740Z,9.65
2023-01-06T15:27:55.099Z,9.80
2023-01-06T15:30:25.551Z,9.76
2023-01-06T15:32:54.086Z,9.50
2023-01-06T15:35:23.751Z,9.75
2023-01-06T15:37:53.297Z,9.75
2023-01-06T15:40:21.621Z,9.57
2023-01-06T15:42:49.663Z,9.63
2023-01-06T15:45:27.431Z,9.66
2023-01-06T15:47:56.647Z,9.61
2023-01-06T15:50:26.557Z,9.61
2023-01-06T15:52:56.168Z,9.47
2023-01-06T15:55:27.152Z,9.36
2023-01-06T15:57:57.599Z,9.24
2023-01-06T16:00:27.832Z,9.21
2023-01-06T16:02:55.499Z,9.19
2023-01-06T16:05:41.048Z,9.18
2023-01-06T16:08:17.763Z,9.17
2023-01-06T16:10:46.099Z,9.21
2023-01-06T16:13:31.527Z,9.20
2023-01-06T16:16:02.971Z,9.10
2023-01-06T16:18:32.903Z,8.99
2023-01-06T16:21:01.635Z,8.91
2023-01-06T16:23:33.094Z,9.02
2023-01-06T16:26:09.317Z,9.13
2023-01-06T16:28:37.498Z,8.89
2023-01-06T16:31:08.601Z,9.20
2023-01-06T16:33:39.928Z,9.21
2023-01-06T16:36:13.397Z,9.16
2023-01-06T16:38:40.852Z,9.15
2023-01-06T16:41:09.059Z,9.05
2023-01-06T16:43:36.473Z,9.20
2023-01-06T16:46:12.633Z,9.33
2023-01-06T16:48:40.123Z,9.25
2023-01-06T16:51:14.352Z,9.37
2023-01-06T16:53:43.465Z,9.40
2023-01-06T16:56:17.038Z,9.50
2023-01-06T16:58:44.510Z,9.42
2023-01-06T17:01:16.397Z,9.36
2023-01-06T17:03:44.410Z,9.63
2023-01-06T17:06:14.073Z,9.57
2023-01-06T17:08:41.592Z,9.23
2023-01-06T17:11:15.010Z,9.29
2023-01-06T17:13:45.958Z,9.33
2023-01-06T17:16:16.904Z,9.52
2023-01-06T17:18:53.094Z,9.22
2023-01-06T17:21:22.194Z,9.17
2023-01-06T17:23:50.947Z,9.18
2023-01-06T17:26:19.965Z,9.20
2023-01-06T17:28:48.213Z,9.08
2023-01-06T17:31:18.564Z,9.05
2023-01-06T17:33:46.532Z,8.96
2023-01-06T17:36:21.819Z,8.95
2023-01-06T17:38:50.040Z,8.91
2023-01-06T17:41:18.394Z,9.02
2023-01-06T17:43:46.881Z,8.96
2023-01-06T17:46:18.083Z,9.05
2023-01-06T17:48:46.594Z,8.94
2023-01-06T17:51:14.943Z,9.12
2023-01-06T17:54:00.031Z,9.27
2023-01-06T17:56:27.669Z,9.30
2023-01-06T17:58:55.191Z,9.43
2023-01-06T18:01:26.172Z,9.49
2023-01-06T18:03:54.857Z,9.51
2023-01-06T18:06:26.002Z,9.52
2023-01-06T18:09:00.715Z,9.82
2023-01-06T18:11:30.756Z,9.67
2023-01-06T18:14:03.619Z,9.71
2023-01-06T18:16:35.098Z,9.67
2023-01-06T18:19:24.495Z,9.54
2023-01-06T18:21:52.347Z,9.43
2023-01-06T18:24:24.679Z,9.14
2023-01-06T18:26:55.910Z,9.23
2023-01-06T18:29:25.378Z,9.26
2023-01-06T18:31:55.519Z,9.09
2023-01-06T18:34:29.640Z,9.14
2023-01-06T18:36:58.497Z,9.31
2023-01-06T18:39:28.047Z,9.39
2023-01-06T18:42:16.615Z,9.37
2023-01-06T18:44:44.139Z,9.35
2023-01-06T18:47:16.379Z,9.25
2023-01-06T18:49:44.173Z,9.28
2023-01-06T18:52:40.916Z,9.19
2023-01-06T18:55:19.175Z,9.09
2023-01-06T18:57:54.816Z,9.03
2023-01-06T19:00:31.983Z,9.24
2023-01-06T19:03:05.530Z,9.09
2023-01-06T19:05:35.832Z,9.32
2023-01-06T19:08:12.003Z,9.24
2023-01-06T19:10:39.475Z,9.36
2023-01-06T19:13:15.332Z,9.29
2023-01-06T19:15:43.060Z,9.41
2023-01-06T19:18:16.242Z,9.39
2023-01-06T19:20:45.034Z,9.40
2023-01-06T19:23:18.577Z,9.36
2023-01-06T19:25:48.444Z,9.47
2023-01-06T19:28:18.669Z,9.52
2023-01-06T19:30:49.214Z,9.58
2023-01-06T19:33:25.233Z,9.84
2023-01-06T19:35:53.699Z,9.60
2023-01-06T19:38:26.236Z,9.72
2023-01-06T19:40:54.443Z,9.51
2023-01-06T19:43:25.738Z,9.69
2023-01-06T19:45:53.587Z,9.76
2023-01-06T19:48:25.133Z,9.64
2023-01-06T19:51:01.157Z,9.77
2023-01-06T19:53:39.041Z,9.65
2023-01-06T19:56:16.133Z,9.86
2023-01-06T19:58:44.101Z,9.93
2023-01-06T20:01:13.913Z,9.56
2023-01-06T20:03:46.451Z,9.47
2023-01-06T20:06:15.047Z,9.52
2023-01-06T20:08:42.608Z,9.49
2023-01-06T20:11:10.723Z,9.22
2023-01-06T20:13:38.304Z,9.24
2023-01-06T20:16:06.838Z,9.13
2023-01-06T20:18:34.401Z,9.08
2023-01-06T20:21:03.512Z,9.19
2023-01-06T20:23:31.350Z,9.22
2023-01-06T20:25:58.980Z,9.28
2023-01-06T20:28:26.451Z,8.90
2023-01-06T20:30:53.957Z,9.05
2023-01-06T20:33:21.453Z,9.33
2023-01-06T20:35:48.924Z,9.05
2023-01-06T20:38:17.803Z,9.18
2023-01-06T20:40:45.338Z,9.23
2023-01-06T20:43:12.890Z,9.19
2023-01-06T20:45:40.538Z,8.99
2023-01-06T20:48:08.119Z,9.02
2023-01-06T20:50:35.683Z,9.01
2023-01-06T20:53:03.190Z,8.96
2023-01-06T20:55:31.986Z,8.98
2023-01-06T20:57:59.521Z,9.22
2023-01-06T21:00:26.983Z,9.19
2023-01-06T21:02:54.627Z,9.40
2023-01-06T21:05:22.134Z,9.60
2023-01-06T21:07:49.581Z,9.75
2023-01-06T21:10:17.156Z,9.85
2023-01-06T21:12:45.995Z,9.90
2023-01-06T21:15:13.702Z,9.95
2023-01-06T21:17:41.193Z,9.78
2023-01-06T21:20:10.061Z,9.90
2023-01-06T21:22:37.868Z,9.89
2023-01-06T21:25:05.988Z,9.90
2023-01-06T21:27:33.557Z,10.00
2023-01-06T21:30:02.473Z,9.89
2023-01-06T21:32:29.944Z,9.98
2023-01-06T21:34:58.515Z,9.98
2023-01-06T21:37:26.016Z,9.90
2023-01-06T21:39:53.572Z,9.86
2023-01-06T21:42:38.688Z,9.87
2023-01-06T21:45:09.320Z,9.75
2023-01-06T21:47:36.771Z,9.94
2023-01-06T21:50:05.220Z,9.97
2023-01-06T21:52:32.894Z,9.96
2023-01-06T21:55:00.911Z,10.01
2023-01-06T21:57:29.044Z,10.04
2023-01-06T21:59:56.525Z,9.93
2023-01-06T22:02:25.755Z,9.87
2023-01-06T22:04:53.268Z,10.03
2023-01-06T22:07:21.930Z,10.00
2023-01-06T22:09:49.555Z,9.96
2023-01-06T22:12:18.261Z,10.02
2023-01-06T22:14:46.072Z,9.83
2023-01-06T22:17:13.930Z,9.99
2023-01-06T22:19:43.746Z,10.12
2023-01-06T22:22:11.266Z,10.05
2023-01-06T22:24:39.148Z,10.15
2023-01-06T22:27:06.619Z,10.06
2023-01-06T22:29:34.181Z,9.97
2023-01-06T22:32:02.999Z,10.12
2023-01-06T22:34:30.571Z,9.87
2023-01-06T22:36:59.388Z,9.83
2023-01-06T22:39:26.998Z,9.79
2023-01-06T22:41:54.792Z,9.83
2023-01-06T22:44:22.436Z,9.82
2023-01-06T22:46:49.928Z,9.74
2023-01-06T22:49:17.419Z,9.94
2023-01-06T22:51:44.882Z,9.83
2023-01-06T22:54:13.678Z,9.84
2023-01-06T22:56:41.934Z,9.83
2023-01-06T22:59:10.378Z,9.96
2023-01-06T23:01:38.074Z,9.88
2023-01-06T23:04:05.942Z,9.78
2023-01-06T23:06:34.047Z,9.71
2023-01-06T23:09:01.533Z,9.60
2023-01-06T23:11:33.153Z,9.82
2023-01-06T23:14:00.944Z,9.98
2023-01-06T23:16:30.090Z,9.87
2023-01-06T23:18:58.109Z,10.14
2023-01-06T23:21:27.221Z,9.85
2023-01-06T23:23:55.150Z,10.01
2023-01-06T23:26:25.011Z,10.04
2023-01-06T23:28:54.337Z,10.01
2023-01-06T23:31:23.623Z,9.89
2023-01-06T23:33:52.475Z,9.94
2023-01-06T23:36:21.239Z,10.03
2023-01-06T23:38:49.234Z,10.04
2023-01-06T23:41:18.299Z,9.90
2023-01-06T23:43:46.026Z,9.93
2023-01-06T23:46:16.729Z,9.97
2023-01-06T23:48:44.558Z,9.91
2023-01-06T23:51:13.003Z,9.99
2023-01-06T23:53:41.043Z,9.87
2023-01-06T23:56:11.240Z,10.18
2023-01-06T23:58:40.321Z,10.19
